Sarasota, FL

2:17 AM EST on December 18, 2014 (GMT -0500)
Sarabay Woods - Whitfield | Change Station
CLOSE
Current Station
Personal Weather Station
Location: Sarasota, FL
Elevation: 20 ft
Nearby Weather Stations

Elev 20 ft 27.41 °N, 82.55 °W | Updated 6 seconds ago

Clear
Clear
50.2 °F
Feels Like 50.2 °F
N
0.0
Wind Variable Wind from NW
Gusts 0.0 mph

Today
High -- | Low -- °F
--% Chance of Precip.
Yesterday
High -- | Low -- °F
Precip. -- in
7:14 AM 5:39 PM
Waning Crescent, 16% visible
Pressure 30.14 in
Visibility 10.0 miles
Clouds Clear
Dew Point 47 °F
Humidity 90%
Rainfall 0.00 in
Snow Depth Not available.
UV 0 out of 12
Pollen 5.10 out of 12
Air Quality Not available.
Flu Activity Not available.
METAR KSRQ 180653Z AUTO 03003KT 10SM CLR 09/09 A3013 RMK AO2 SLP204 T00940089

More Conditions Fewer Conditions

Pressure 30.14 in
Visibility 10.0 miles
Clouds Clear
Dew Point 47 °F
Humidity 90%
Rainfall 0.00 in
Snow Depth Not available.
UV 0 out of 12
Pollen 5.10 out of 12
Air Quality Not available.
Flu Activity Not available.
METAR KSRQ 180653Z AUTO 03003KT 10SM CLR 09/09 A3013 RMK AO2 SLP204 T00940089

More Conditions Fewer Conditions

10-Day Weather Forecast

Almanac

Astronomy

Dec. 18, 2014 Rise Set
Actual Time
Civil Twilight
Nautical Twilight
Astronomical Twilight
Moon
Length of Visible Light
Length of Day
Tomorrow will be .
, % of the Moon is Illuminated

Today's Extremes

State Highs State Lows

Community

WunderPhotos

Upload Photos

1,778,897 photos uploaded!

WunderBlogs® & News

Nearby

Air Quality

  Air Quality AQ Index Pollutant
Not available.

Snow Depth

Station Depth Elevation

Earthquake Activity

City Distance Mag. Time & Date
Minimum magnitude displayed is 2.5.

Coastal Water Temperatures

Place Temperature

Nearby Weather Stations